TimeCDT,TemperatureF,Dew PointF,Humidity,Sea Level PressureIn,VisibilityMPH,Wind Direction,Wind SpeedMPH,Gust SpeedMPH,PrecipitationIn,Events,Conditions,WindDirDegrees,DateUTC
12:53 AM,66.9,64.0,90,29.91,10.0,Calm,Calm,-,N/A,,Clear,0,2013-06-17 05:53:00
1:53 AM,68.0,64.0,87,29.92,10.0,WSW,5.8,-,N/A,,Clear,250,2013-06-17 06:53:00
2:53 AM,66.9,64.0,90,29.90,10.0,West,4.6,-,N/A,,Clear,280,2013-06-17 07:53:00
3:53 AM,66.9,64.0,90,29.92,10.0,WSW,3.5,-,N/A,,Clear,240,2013-06-17 08:53:00
4:53 AM,64.9,63.0,93,29.92,9.0,WSW,3.5,-,N/A,,Clear,240,2013-06-17 09:53:00
5:53 AM,64.0,63.0,96,29.91,5.0,Calm,Calm,-,N/A,,Clear,0,2013-06-17 10:53:00
6:53 AM,68.0,64.9,90,29.94,6.0,West,3.5,-,N/A,,Clear,270,2013-06-17 11:53:00
7:53 AM,73.9,64.9,73,29.94,10.0,Calm,Calm,-,N/A,,Clear,0,2013-06-17 12:53:00
8:53 AM,77.0,64.0,64,29.95,10.0,SW,4.6,-,N/A,,Clear,230,2013-06-17 13:53:00
9:53 AM,80.1,63.0,56,29.95,10.0,SW,4.6,-,N/A,,Clear,220,2013-06-17 14:53:00
10:53 AM,84.0,54.0,35,29.93,10.0,WSW,4.6,-,N/A,,Clear,240,2013-06-17 15:53:00
11:53 AM,84.9,55.0,36,29.93,10.0,SW,5.8,-,N/A,,Clear,230,2013-06-17 16:53:00
12:53 PM,84.0,57.0,40,29.93,10.0,SW,9.2,-,N/A,,Clear,230,2013-06-17 17:53:00
1:53 PM,84.9,55.0,36,29.93,10.0,West,9.2,-,N/A,,Clear,270,2013-06-17 18:53:00
2:53 PM,84.9,55.9,37,29.92,10.0,WSW,11.5,-,N/A,,Clear,240,2013-06-17 19:53:00
3:53 PM,87.1,54.0,32,29.89,10.0,West,10.4,-,N/A,,Clear,270,2013-06-17 20:53:00
4:53 PM,84.9,55.0,36,29.88,10.0,WSW,10.4,-,N/A,,Clear,240,2013-06-17 21:53:00
5:53 PM,84.0,55.0,37,29.88,10.0,WSW,8.1,-,N/A,,Clear,240,2013-06-17 22:53:00
6:53 PM,82.0,57.0,42,29.87,10.0,SSW,8.1,-,N/A,,Clear,210,2013-06-17 23:53:00
7:53 PM,79.0,59.0,50,29.86,10.0,SSW,4.6,-,N/A,,Clear,210,2013-06-18 00:53:00
8:53 PM,77.0,60.1,56,29.87,10.0,WSW,3.5,-,N/A,,Scattered Clouds,240,2013-06-18 01:53:00
9:53 PM,70.0,57.0,63,29.92,10.0,North,9.2,17.3,N/A,,Mostly Cloudy,350,2013-06-18 02:53:00
10:53 PM,68.0,59.0,73,29.90,10.0,ENE,5.8,-,N/A,,Overcast,60,2013-06-18 03:53:00
11:53 PM,66.9,59.0,76,29.91,10.0,NNW,4.6,-,N/A,,Partly Cloudy,340,2013-06-18 04:53:00